Terminal Aerodrome Forecast
Issued by NWS

Home | Current Version | Previous Version | Text Only | Print | Product List | Glossary On
Versions: 1 2 3 4 5 6 7 8 9 10 11 12
000
FTUS41 KAKQ 051743
TAFPHF
TAF
KPHF 051743Z 0518/0618 21011G17KT P6SM SKC
     FM052300 21010KT P6SM SKC
     FM061000 22005KT P6SM FEW060=

USA.gov is the U.S. government's official web portal to all federal, state and local government web resources and services.